sensor_id;sensor_type;location;lat;lon;timestamp;temperature;humidity
41644;DHT22;44236;48.098;11.582;2023-03-14T00:00:33;19.60;44.70
41644;DHT22;44236;48.098;11.582;2023-03-14T00:02:58;19.50;44.70
41644;DHT22;44236;48.098;11.582;2023-03-14T00:05:25;19.50;44.70
41644;DHT22;44236;48.098;11.582;2023-03-14T00:07:50;19.50;44.70
41644;DHT22;44236;48.098;11.582;2023-03-14T00:10:16;19.50;44.70
41644;DHT22;44236;48.098;11.582;2023-03-14T00:12:43;19.50;44.70
41644;DHT22;44236;48.098;11.582;2023-03-14T00:15:10;19.50;44.70
41644;DHT22;44236;48.098;11.582;2023-03-14T00:17:36;19.50;44.70
41644;DHT22;44236;48.098;11.582;2023-03-14T00:20:06;19.50;44.70
41644;DHT22;44236;48.098;11.582;2023-03-14T00:22:37;19.50;44.70
41644;DHT22;44236;48.098;11.582;2023-03-14T00:25:04;19.50;44.70
41644;DHT22;44236;48.098;11.582;2023-03-14T00:27:30;19.50;44.70
41644;DHT22;44236;48.098;11.582;2023-03-14T00:29:56;19.50;44.70
41644;DHT22;44236;48.098;11.582;2023-03-14T00:32:22;19.50;44.70
41644;DHT22;44236;48.098;11.582;2023-03-14T00:34:48;19.50;44.70
41644;DHT22;44236;48.098;11.582;2023-03-14T00:37:14;19.50;44.70
41644;DHT22;44236;48.098;11.582;2023-03-14T00:39:39;19.50;44.70
41644;DHT22;44236;48.098;11.582;2023-03-14T00:42:05;19.50;44.70
41644;DHT22;44236;48.098;11.582;2023-03-14T00:44:31;19.50;44.70
41644;DHT22;44236;48.098;11.582;2023-03-14T00:46:57;19.50;44.70
41644;DHT22;44236;48.098;11.582;2023-03-14T00:49:23;19.40;44.60
41644;DHT22;44236;48.098;11.582;2023-03-14T00:51:48;19.40;45.10
41644;DHT22;44236;48.098;11.582;2023-03-14T00:54:14;19.40;44.60
41644;DHT22;44236;48.098;11.582;2023-03-14T00:56:40;19.40;44.70
41644;DHT22;44236;48.098;11.582;2023-03-14T00:59:05;19.40;44.60
41644;DHT22;44236;48.098;11.582;2023-03-14T01:01:31;19.40;44.60
41644;DHT22;44236;48.098;11.582;2023-03-14T01:03:56;19.40;44.60
41644;DHT22;44236;48.098;11.582;2023-03-14T01:06:25;19.40;44.60
41644;DHT22;44236;48.098;11.582;2023-03-14T01:08:51;19.40;44.60
41644;DHT22;44236;48.098;11.582;2023-03-14T01:11:23;19.40;44.60
41644;DHT22;44236;48.098;11.582;2023-03-14T01:13:49;19.40;44.60
41644;DHT22;44236;48.098;11.582;2023-03-14T01:16:16;19.40;44.60
41644;DHT22;44236;48.098;11.582;2023-03-14T01:18:42;19.40;44.60
41644;DHT22;44236;48.098;11.582;2023-03-14T01:21:29;19.40;44.60
41644;DHT22;44236;48.098;11.582;2023-03-14T01:23:57;19.40;44.60
41644;DHT22;44236;48.098;11.582;2023-03-14T01:26:24;19.40;44.60
41644;DHT22;44236;48.098;11.582;2023-03-14T01:28:52;19.40;44.60
41644;DHT22;44236;48.098;11.582;2023-03-14T01:31:18;19.40;44.60
41644;DHT22;44236;48.098;11.582;2023-03-14T01:33:45;19.40;44.60
41644;DHT22;44236;48.098;11.582;2023-03-14T01:36:11;19.40;44.60
41644;DHT22;44236;48.098;11.582;2023-03-14T01:38:38;19.30;44.60
41644;DHT22;44236;48.098;11.582;2023-03-14T01:41:04;19.30;44.60
41644;DHT22;44236;48.098;11.582;2023-03-14T01:43:30;19.30;44.50
41644;DHT22;44236;48.098;11.582;2023-03-14T01:51:51;19.30;44.60
41644;DHT22;44236;48.098;11.582;2023-03-14T01:57:36;19.30;44.60
41644;DHT22;44236;48.098;11.582;2023-03-14T02:00:01;19.30;44.60
41644;DHT22;44236;48.098;11.582;2023-03-14T02:02:30;19.30;44.70
41644;DHT22;44236;48.098;11.582;2023-03-14T02:04:57;19.30;44.70
41644;DHT22;44236;48.098;11.582;2023-03-14T02:10:06;19.30;44.60
41644;DHT22;44236;48.098;11.582;2023-03-14T02:12:32;19.30;44.60
41644;DHT22;44236;48.098;11.582;2023-03-14T02:14:58;19.30;44.60
41644;DHT22;44236;48.098;11.582;2023-03-14T02:17:24;19.30;44.60
41644;DHT22;44236;48.098;11.582;2023-03-14T02:22:38;19.30;44.70
41644;DHT22;44236;48.098;11.582;2023-03-14T02:27:56;19.30;44.70
41644;DHT22;44236;48.098;11.582;2023-03-14T02:30:26;19.30;44.70
41644;DHT22;44236;48.098;11.582;2023-03-14T02:32:55;19.30;44.60
41644;DHT22;44236;48.098;11.582;2023-03-14T02:35:26;19.30;44.70
41644;DHT22;44236;48.098;11.582;2023-03-14T02:37:56;19.20;44.60
41644;DHT22;44236;48.098;11.582;2023-03-14T02:40:24;19.20;44.60
41644;DHT22;44236;48.098;11.582;2023-03-14T02:42:50;19.20;44.50
41644;DHT22;44236;48.098;11.582;2023-03-14T02:47:51;19.20;44.60
41644;DHT22;44236;48.098;11.582;2023-03-14T02:50:21;19.20;44.50
41644;DHT22;44236;48.098;11.582;2023-03-14T02:52:48;19.20;44.60
41644;DHT22;44236;48.098;11.582;2023-03-14T02:55:13;19.20;44.60
41644;DHT22;44236;48.098;11.582;2023-03-14T02:57:39;19.20;44.60
41644;DHT22;44236;48.098;11.582;2023-03-14T03:00:05;19.20;44.50
41644;DHT22;44236;48.098;11.582;2023-03-14T03:02:35;19.20;44.60
41644;DHT22;44236;48.098;11.582;2023-03-14T03:05:01;19.20;44.50
41644;DHT22;44236;48.098;11.582;2023-03-14T03:07:26;19.20;44.60
41644;DHT22;44236;48.098;11.582;2023-03-14T03:09:52;19.20;44.50
41644;DHT22;44236;48.098;11.582;2023-03-14T03:12:18;19.20;44.60
41644;DHT22;44236;48.098;11.582;2023-03-14T03:14:43;19.20;44.50
41644;DHT22;44236;48.098;11.582;2023-03-14T03:17:09;19.20;44.50
41644;DHT22;44236;48.098;11.582;2023-03-14T03:19:34;19.20;44.50
41644;DHT22;44236;48.098;11.582;2023-03-14T03:22:00;19.20;44.50
41644;DHT22;44236;48.098;11.582;2023-03-14T03:24:26;19.20;44.60
41644;DHT22;44236;48.098;11.582;2023-03-14T03:26:52;19.20;44.60
41644;DHT22;44236;48.098;11.582;2023-03-14T03:29:18;19.10;44.50
41644;DHT22;44236;48.098;11.582;2023-03-14T03:31:43;19.10;44.50
41644;DHT22;44236;48.098;11.582;2023-03-14T03:34:11;19.20;44.60
41644;DHT22;44236;48.098;11.582;2023-03-14T03:36:37;19.10;44.50
41644;DHT22;44236;48.098;11.582;2023-03-14T03:39:03;19.10;44.50
41644;DHT22;44236;48.098;11.582;2023-03-14T03:41:29;19.10;44.50
41644;DHT22;44236;48.098;11.582;2023-03-14T03:43:56;19.10;44.50
41644;DHT22;44236;48.098;11.582;2023-03-14T03:46:21;19.10;44.50
41644;DHT22;44236;48.098;11.582;2023-03-14T03:48:47;19.10;44.50
41644;DHT22;44236;48.098;11.582;2023-03-14T03:51:14;19.10;44.50
41644;DHT22;44236;48.098;11.582;2023-03-14T03:53:41;19.10;44.50
41644;DHT22;44236;48.098;11.582;2023-03-14T03:56:07;19.10;44.50
41644;DHT22;44236;48.098;11.582;2023-03-14T03:58:33;19.10;44.50
41644;DHT22;44236;48.098;11.582;2023-03-14T04:00:59;19.10;44.50
41644;DHT22;44236;48.098;11.582;2023-03-14T04:03:24;19.10;44.50
41644;DHT22;44236;48.098;11.582;2023-03-14T04:06:00;19.10;44.40
41644;DHT22;44236;48.098;11.582;2023-03-14T04:08:26;19.10;44.50
41644;DHT22;44236;48.098;11.582;2023-03-14T04:10:57;19.10;44.50
41644;DHT22;44236;48.098;11.582;2023-03-14T04:13:23;19.10;44.40
41644;DHT22;44236;48.098;11.582;2023-03-14T04:15:49;19.10;44.50
41644;DHT22;44236;48.098;11.582;2023-03-14T04:18:14;19.10;44.40
41644;DHT22;44236;48.098;11.582;2023-03-14T04:20:40;19.10;44.40
41644;DHT22;44236;48.098;11.582;2023-03-14T04:23:05;19.10;44.40
41644;DHT22;44236;48.098;11.582;2023-03-14T04:25:31;19.10;44.30
41644;DHT22;44236;48.098;11.582;2023-03-14T04:27:57;19.10;44.30
41644;DHT22;44236;48.098;11.582;2023-03-14T04:30:22;19.10;44.40
41644;DHT22;44236;48.098;11.582;2023-03-14T04:32:48;19.10;44.30
41644;DHT22;44236;48.098;11.582;2023-03-14T04:35:13;19.10;44.30
41644;DHT22;44236;48.098;11.582;2023-03-14T04:37:39;19.10;44.30
41644;DHT22;44236;48.098;11.582;2023-03-14T04:40:07;19.10;44.30
41644;DHT22;44236;48.098;11.582;2023-03-14T04:42:34;19.10;44.30
41644;DHT22;44236;48.098;11.582;2023-03-14T04:44:59;19.10;44.30
41644;DHT22;44236;48.098;11.582;2023-03-14T04:47:25;19.10;44.20
41644;DHT22;44236;48.098;11.582;2023-03-14T04:49:51;19.10;44.20
41644;DHT22;44236;48.098;11.582;2023-03-14T04:52:17;19.10;44.30
41644;DHT22;44236;48.098;11.582;2023-03-14T04:54:42;19.10;44.30
41644;DHT22;44236;48.098;11.582;2023-03-14T04:57:08;19.10;44.30
41644;DHT22;44236;48.098;11.582;2023-03-14T04:59:37;19.10;44.30
41644;DHT22;44236;48.098;11.582;2023-03-14T05:02:02;19.10;44.30
41644;DHT22;44236;48.098;11.582;2023-03-14T05:04:28;19.10;44.20
41644;DHT22;44236;48.098;11.582;2023-03-14T05:06:54;19.10;44.20
41644;DHT22;44236;48.098;11.582;2023-03-14T05:09:20;19.10;44.20
41644;DHT22;44236;48.098;11.582;2023-03-14T05:11:46;19.10;44.20
41644;DHT22;44236;48.098;11.582;2023-03-14T05:14:11;19.10;44.20
41644;DHT22;44236;48.098;11.582;2023-03-14T05:16:37;19.10;44.20
41644;DHT22;44236;48.098;11.582;2023-03-14T05:19:02;19.10;44.20
41644;DHT22;44236;48.098;11.582;2023-03-14T05:21:28;19.10;44.10
41644;DHT22;44236;48.098;11.582;2023-03-14T05:23:53;19.10;44.10
41644;DHT22;44236;48.098;11.582;2023-03-14T05:26:19;19.10;44.20
41644;DHT22;44236;48.098;11.582;2023-03-14T05:28:45;19.10;44.20
41644;DHT22;44236;48.098;11.582;2023-03-14T05:31:10;19.10;44.20
41644;DHT22;44236;48.098;11.582;2023-03-14T05:33:36;19.10;44.20
41644;DHT22;44236;48.098;11.582;2023-03-14T05:36:02;19.10;44.20
41644;DHT22;44236;48.098;11.582;2023-03-14T05:38:28;19.10;44.20
41644;DHT22;44236;48.098;11.582;2023-03-14T05:40:53;19.10;44.10
41644;DHT22;44236;48.098;11.582;2023-03-14T05:43:19;19.10;44.10
41644;DHT22;44236;48.098;11.582;2023-03-14T05:45:45;19.10;44.10
41644;DHT22;44236;48.098;11.582;2023-03-14T05:48:14;19.10;44.10
41644;DHT22;44236;48.098;11.582;2023-03-14T05:50:39;19.20;44.10
41644;DHT22;44236;48.098;11.582;2023-03-14T05:53:05;19.20;44.00
41644;DHT22;44236;48.098;11.582;2023-03-14T05:55:31;19.20;44.00
41644;DHT22;44236;48.098;11.582;2023-03-14T05:57:56;19.20;44.00
41644;DHT22;44236;48.098;11.582;2023-03-14T06:00:22;19.30;44.00
41644;DHT22;44236;48.098;11.582;2023-03-14T06:02:48;19.30;44.00
41644;DHT22;44236;48.098;11.582;2023-03-14T06:05:14;19.30;44.10
41644;DHT22;44236;48.098;11.582;2023-03-14T06:07:39;19.30;43.90
41644;DHT22;44236;48.098;11.582;2023-03-14T06:10:06;19.30;43.80
41644;DHT22;44236;48.098;11.582;2023-03-14T06:12:31;19.40;44.30
41644;DHT22;44236;48.098;11.582;2023-03-14T06:14:57;19.00;44.30
41644;DHT22;44236;48.098;11.582;2023-03-14T06:17:23;18.90;44.80
41644;DHT22;44236;48.098;11.582;2023-03-14T06:19:48;18.90;44.60
41644;DHT22;44236;48.098;11.582;2023-03-14T06:22:14;19.00;44.60
41644;DHT22;44236;48.098;11.582;2023-03-14T06:24:39;19.10;44.40
41644;DHT22;44236;48.098;11.582;2023-03-14T06:27:05;19.10;44.40
41644;DHT22;44236;48.098;11.582;2023-03-14T06:29:31;19.20;44.50
41644;DHT22;44236;48.098;11.582;2023-03-14T06:31:56;19.20;44.40
41644;DHT22;44236;48.098;11.582;2023-03-14T06:34:22;19.30;44.30
41644;DHT22;44236;48.098;11.582;2023-03-14T06:36:48;19.30;43.80
41644;DHT22;44236;48.098;11.582;2023-03-14T06:39:13;19.30;44.30
41644;DHT22;44236;48.098;11.582;2023-03-14T06:41:39;19.30;44.30
41644;DHT22;44236;48.098;11.582;2023-03-14T06:44:05;19.30;44.30
41644;DHT22;44236;48.098;11.582;2023-03-14T06:46:30;19.30;44.20
41644;DHT22;44236;48.098;11.582;2023-03-14T06:48:56;19.40;44.30
41644;DHT22;44236;48.098;11.582;2023-03-14T06:51:22;19.40;44.60
41644;DHT22;44236;48.098;11.582;2023-03-14T06:53:47;19.40;44.50
41644;DHT22;44236;48.098;11.582;2023-03-14T06:56:13;19.40;44.30
41644;DHT22;44236;48.098;11.582;2023-03-14T06:58:39;19.40;44.10
41644;DHT22;44236;48.098;11.582;2023-03-14T07:01:05;19.40;43.80
41644;DHT22;44236;48.098;11.582;2023-03-14T07:03:30;19.40;44.10
41644;DHT22;44236;48.098;11.582;2023-03-14T07:05:56;19.40;44.20
41644;DHT22;44236;48.098;11.582;2023-03-14T07:08:22;19.40;44.20
41644;DHT22;44236;48.098;11.582;2023-03-14T07:10:47;19.40;44.10
41644;DHT22;44236;48.098;11.582;2023-03-14T07:13:13;19.50;44.20
41644;DHT22;44236;48.098;11.582;2023-03-14T07:15:39;19.50;44.10
41644;DHT22;44236;48.098;11.582;2023-03-14T07:18:04;19.50;44.60
41644;DHT22;44236;48.098;11.582;2023-03-14T07:20:30;19.50;44.00
41644;DHT22;44236;48.098;11.582;2023-03-14T07:22:58;19.50;44.00
41644;DHT22;44236;48.098;11.582;2023-03-14T07:25:25;19.50;44.70
41644;DHT22;44236;48.098;11.582;2023-03-14T07:27:51;19.20;44.50
41644;DHT22;44236;48.098;11.582;2023-03-14T07:30:17;18.90;44.80
41644;DHT22;44236;48.098;11.582;2023-03-14T07:32:43;18.90;45.20
41644;DHT22;44236;48.098;11.582;2023-03-14T07:35:09;19.00;45.00
41644;DHT22;44236;48.098;11.582;2023-03-14T07:37:34;19.00;44.90
41644;DHT22;44236;48.098;11.582;2023-03-14T07:40:00;19.10;44.80
41644;DHT22;44236;48.098;11.582;2023-03-14T07:42:26;19.20;44.80
41644;DHT22;44236;48.098;11.582;2023-03-14T07:44:51;19.20;44.60
41644;DHT22;44236;48.098;11.582;2023-03-14T07:47:17;19.30;44.50
41644;DHT22;44236;48.098;11.582;2023-03-14T07:49:43;19.30;44.50
41644;DHT22;44236;48.098;11.582;2023-03-14T07:52:08;19.30;44.50
41644;DHT22;44236;48.098;11.582;2023-03-14T07:54:34;19.40;44.60
41644;DHT22;44236;48.098;11.582;2023-03-14T07:57:00;19.40;44.60
41644;DHT22;44236;48.098;11.582;2023-03-14T07:59:26;19.40;44.60
41644;DHT22;44236;48.098;11.582;2023-03-14T08:01:52;19.40;44.50
41644;DHT22;44236;48.098;11.582;2023-03-14T08:04:18;19.40;44.60
41644;DHT22;44236;48.098;11.582;2023-03-14T08:06:43;19.40;44.50
41644;DHT22;44236;48.098;11.582;2023-03-14T08:09:09;19.40;44.50
41644;DHT22;44236;48.098;11.582;2023-03-14T08:11:35;19.50;44.60
41644;DHT22;44236;48.098;11.582;2023-03-14T08:14:01;19.50;44.50
41644;DHT22;44236;48.098;11.582;2023-03-14T08:16:27;19.50;44.80
41644;DHT22;44236;48.098;11.582;2023-03-14T08:18:52;19.50;44.70
41644;DHT22;44236;48.098;11.582;2023-03-14T08:21:18;19.50;44.70
41644;DHT22;44236;48.098;11.582;2023-03-14T08:23:44;19.50;44.60
41644;DHT22;44236;48.098;11.582;2023-03-14T08:26:09;19.50;44.60
41644;DHT22;44236;48.098;11.582;2023-03-14T08:28:35;19.50;44.60
41644;DHT22;44236;48.098;11.582;2023-03-14T08:31:01;19.50;44.70
41644;DHT22;44236;48.098;11.582;2023-03-14T08:33:28;19.50;44.70
41644;DHT22;44236;48.098;11.582;2023-03-14T08:35:55;19.50;44.60
41644;DHT22;44236;48.098;11.582;2023-03-14T08:38:21;19.50;44.40
41644;DHT22;44236;48.098;11.582;2023-03-14T08:40:47;19.50;44.80
41644;DHT22;44236;48.098;11.582;2023-03-14T08:43:13;19.50;44.80
41644;DHT22;44236;48.098;11.582;2023-03-14T08:45:38;19.50;44.80
41644;DHT22;44236;48.098;11.582;2023-03-14T08:48:04;19.50;45.00
41644;DHT22;44236;48.098;11.582;2023-03-14T08:50:30;19.60;45.00
41644;DHT22;44236;48.098;11.582;2023-03-14T08:52:55;19.50;45.00
41644;DHT22;44236;48.098;11.582;2023-03-14T08:55:25;19.50;45.10
41644;DHT22;44236;48.098;11.582;2023-03-14T08:57:52;19.50;44.90
41644;DHT22;44236;48.098;11.582;2023-03-14T09:00:19;19.60;44.90
41644;DHT22;44236;48.098;11.582;2023-03-14T09:02:45;19.60;45.00
41644;DHT22;44236;48.098;11.582;2023-03-14T09:05:11;19.60;45.00
41644;DHT22;44236;48.098;11.582;2023-03-14T09:07:38;19.60;45.00
41644;DHT22;44236;48.098;11.582;2023-03-14T09:10:04;19.50;45.00
41644;DHT22;44236;48.098;11.582;2023-03-14T09:12:30;19.60;44.90
41644;DHT22;44236;48.098;11.582;2023-03-14T09:14:56;19.60;45.00
41644;DHT22;44236;48.098;11.582;2023-03-14T09:17:21;19.60;45.00
41644;DHT22;44236;48.098;11.582;2023-03-14T09:19:47;19.60;45.00
41644;DHT22;44236;48.098;11.582;2023-03-14T09:22:13;19.60;45.00
41644;DHT22;44236;48.098;11.582;2023-03-14T09:24:40;19.60;45.00
41644;DHT22;44236;48.098;11.582;2023-03-14T09:27:05;19.60;45.00
41644;DHT22;44236;48.098;11.582;2023-03-14T09:29:31;19.60;44.90
41644;DHT22;44236;48.098;11.582;2023-03-14T09:31:58;19.60;44.90
41644;DHT22;44236;48.098;11.582;2023-03-14T09:34:23;19.60;45.00
41644;DHT22;44236;48.098;11.582;2023-03-14T09:36:49;19.60;45.20
41644;DHT22;44236;48.098;11.582;2023-03-14T09:39:15;19.60;45.20
41644;DHT22;44236;48.098;11.582;2023-03-14T09:41:44;19.60;45.30
41644;DHT22;44236;48.098;11.582;2023-03-14T09:44:33;19.60;45.90
41644;DHT22;44236;48.098;11.582;2023-03-14T09:47:18;19.50;45.30
41644;DHT22;44236;48.098;11.582;2023-03-14T09:49:45;19.60;45.40
41644;DHT22;44236;48.098;11.582;2023-03-14T09:52:31;19.60;45.50
41644;DHT22;44236;48.098;11.582;2023-03-14T09:54:57;19.60;45.50
41644;DHT22;44236;48.098;11.582;2023-03-14T09:57:25;19.60;45.60
41644;DHT22;44236;48.098;11.582;2023-03-14T09:59:54;19.50;45.60
41644;DHT22;44236;48.098;11.582;2023-03-14T10:02:24;19.60;45.60
41644;DHT22;44236;48.098;11.582;2023-03-14T10:04:52;19.50;45.50
41644;DHT22;44236;48.098;11.582;2023-03-14T10:07:25;19.60;45.60
41644;DHT22;44236;48.098;11.582;2023-03-14T10:09:51;19.50;45.50
41644;DHT22;44236;48.098;11.582;2023-03-14T10:12:18;19.50;45.50
41644;DHT22;44236;48.098;11.582;2023-03-14T10:14:49;19.50;45.50
41644;DHT22;44236;48.098;11.582;2023-03-14T10:17:17;19.60;45.50
41644;DHT22;44236;48.098;11.582;2023-03-14T10:19:59;19.50;45.50
41644;DHT22;44236;48.098;11.582;2023-03-14T10:22:30;19.50;45.50
41644;DHT22;44236;48.098;11.582;2023-03-14T10:25:01;19.60;45.50
41644;DHT22;44236;48.098;11.582;2023-03-14T10:27:30;19.60;45.50
41644;DHT22;44236;48.098;11.582;2023-03-14T10:30:01;19.60;45.50
41644;DHT22;44236;48.098;11.582;2023-03-14T10:32:38;19.60;45.40
41644;DHT22;44236;48.098;11.582;2023-03-14T10:37:57;19.60;45.20
41644;DHT22;44236;48.098;11.582;2023-03-14T10:40:32;19.60;45.20
41644;DHT22;44236;48.098;11.582;2023-03-14T10:42:59;19.60;45.10
41644;DHT22;44236;48.098;11.582;2023-03-14T10:47:55;19.60;45.10
41644;DHT22;44236;48.098;11.582;2023-03-14T10:50:30;19.70;45.20
41644;DHT22;44236;48.098;11.582;2023-03-14T10:52:57;19.70;45.30
41644;DHT22;44236;48.098;11.582;2023-03-14T10:55:25;19.70;45.20
41644;DHT22;44236;48.098;11.582;2023-03-14T10:57:52;19.70;45.30
41644;DHT22;44236;48.098;11.582;2023-03-14T11:00:22;19.70;45.30
41644;DHT22;44236;48.098;11.582;2023-03-14T11:08:42;19.60;45.50
41644;DHT22;44236;48.098;11.582;2023-03-14T11:16:42;19.60;45.40
41644;DHT22;44236;48.098;11.582;2023-03-14T11:24:41;19.60;45.60
41644;DHT22;44236;48.098;11.582;2023-03-14T11:27:18;19.60;45.50
41644;DHT22;44236;48.098;11.582;2023-03-14T11:30:04;19.60;45.50
41644;DHT22;44236;48.098;11.582;2023-03-14T11:32:37;19.60;45.50
41644;DHT22;44236;48.098;11.582;2023-03-14T11:37:48;19.60;45.50
41644;DHT22;44236;48.098;11.582;2023-03-14T11:40:20;19.60;45.60
41644;DHT22;44236;48.098;11.582;2023-03-14T11:42:58;19.60;45.40
41644;DHT22;44236;48.098;11.582;2023-03-14T11:45:30;19.60;45.30
41644;DHT22;44236;48.098;11.582;2023-03-14T11:48:16;19.60;45.50
41644;DHT22;44236;48.098;11.582;2023-03-14T11:50:44;19.60;45.40
41644;DHT22;44236;48.098;11.582;2023-03-14T11:53:16;19.60;45.40
41644;DHT22;44236;48.098;11.582;2023-03-14T11:55:43;19.60;45.60
41644;DHT22;44236;48.098;11.582;2023-03-14T11:58:26;19.60;45.70
41644;DHT22;44236;48.098;11.582;2023-03-14T12:00:53;19.60;45.60
41644;DHT22;44236;48.098;11.582;2023-03-14T12:03:45;19.60;45.60
41644;DHT22;44236;48.098;11.582;2023-03-14T12:06:32;19.60;45.70
41644;DHT22;44236;48.098;11.582;2023-03-14T12:09:04;19.60;45.60
41644;DHT22;44236;48.098;11.582;2023-03-14T12:14:34;19.60;45.60
41644;DHT22;44236;48.098;11.582;2023-03-14T12:17:27;19.60;45.60
41644;DHT22;44236;48.098;11.582;2023-03-14T12:22:36;19.60;45.50
41644;DHT22;44236;48.098;11.582;2023-03-14T12:25:15;19.60;45.50
41644;DHT22;44236;48.098;11.582;2023-03-14T12:43:44;19.60;45.60
41644;DHT22;44236;48.098;11.582;2023-03-14T12:48:47;19.60;45.50
41644;DHT22;44236;48.098;11.582;2023-03-14T12:51:15;19.60;45.50
41644;DHT22;44236;48.098;11.582;2023-03-14T12:56:57;19.60;45.30
41644;DHT22;44236;48.098;11.582;2023-03-14T12:59:36;19.60;45.20
41644;DHT22;44236;48.098;11.582;2023-03-14T13:12:39;19.60;45.30
41644;DHT22;44236;48.098;11.582;2023-03-14T13:15:18;19.60;45.40
41644;DHT22;44236;48.098;11.582;2023-03-14T13:17:46;19.60;45.40
41644;DHT22;44236;48.098;11.582;2023-03-14T13:20:26;19.60;45.40
41644;DHT22;44236;48.098;11.582;2023-03-14T13:22:53;19.60;45.20
41644;DHT22;44236;48.098;11.582;2023-03-14T13:25:19;19.60;45.20
41644;DHT22;44236;48.098;11.582;2023-03-14T13:27:47;19.60;45.20
41644;DHT22;44236;48.098;11.582;2023-03-14T13:32:45;19.70;45.20
41644;DHT22;44236;48.098;11.582;2023-03-14T13:35:28;19.70;45.10
41644;DHT22;44236;48.098;11.582;2023-03-14T13:38:01;19.70;45.10
41644;DHT22;44236;48.098;11.582;2023-03-14T13:40:34;19.70;45.10
41644;DHT22;44236;48.098;11.582;2023-03-14T13:43:18;19.70;45.10
41644;DHT22;44236;48.098;11.582;2023-03-14T13:45:49;19.60;45.10
41644;DHT22;44236;48.098;11.582;2023-03-14T13:48:16;19.60;45.10
41644;DHT22;44236;48.098;11.582;2023-03-14T13:50:50;19.60;45.10
41644;DHT22;44236;48.098;11.582;2023-03-14T13:53:16;19.60;45.10
41644;DHT22;44236;48.098;11.582;2023-03-14T13:55:42;19.60;45.10
41644;DHT22;44236;48.098;11.582;2023-03-14T13:58:30;19.60;45.10
41644;DHT22;44236;48.098;11.582;2023-03-14T14:01:03;19.60;45.00
41644;DHT22;44236;48.098;11.582;2023-03-14T14:03:32;19.60;45.00
41644;DHT22;44236;48.098;11.582;2023-03-14T14:05:58;19.60;45.00
41644;DHT22;44236;48.098;11.582;2023-03-14T14:08:24;19.60;45.00
41644;DHT22;44236;48.098;11.582;2023-03-14T14:10:58;19.60;45.00
41644;DHT22;44236;48.098;11.582;2023-03-14T14:13:25;19.60;45.00
41644;DHT22;44236;48.098;11.582;2023-03-14T14:15:53;19.60;45.00
41644;DHT22;44236;48.098;11.582;2023-03-14T14:18:22;19.60;45.00
41644;DHT22;44236;48.098;11.582;2023-03-14T14:20:49;19.60;45.00
41644;DHT22;44236;48.098;11.582;2023-03-14T14:23:19;19.60;45.00
41644;DHT22;44236;48.098;11.582;2023-03-14T14:25:51;19.60;45.00
41644;DHT22;44236;48.098;11.582;2023-03-14T14:30:46;19.60;45.00
41644;DHT22;44236;48.098;11.582;2023-03-14T14:33:26;19.60;45.00
41644;DHT22;44236;48.098;11.582;2023-03-14T14:35:59;19.60;45.00
41644;DHT22;44236;48.098;11.582;2023-03-14T14:38:26;19.60;45.00
41644;DHT22;44236;48.098;11.582;2023-03-14T14:40:55;19.60;45.00
41644;DHT22;44236;48.098;11.582;2023-03-14T14:43:27;19.60;45.00
41644;DHT22;44236;48.098;11.582;2023-03-14T14:45:54;19.60;44.90
41644;DHT22;44236;48.098;11.582;2023-03-14T14:48:26;19.60;44.90
41644;DHT22;44236;48.098;11.582;2023-03-14T14:51:00;19.60;45.00
41644;DHT22;44236;48.098;11.582;2023-03-14T14:55:59;19.60;44.90
41644;DHT22;44236;48.098;11.582;2023-03-14T14:58:28;19.60;44.90
41644;DHT22;44236;48.098;11.582;2023-03-14T15:01:22;19.60;44.90
41644;DHT22;44236;48.098;11.582;2023-03-14T15:03:50;19.60;44.80
41644;DHT22;44236;48.098;11.582;2023-03-14T15:06:17;19.70;44.90
41644;DHT22;44236;48.098;11.582;2023-03-14T15:08:44;19.60;44.90
41644;DHT22;44236;48.098;11.582;2023-03-14T15:11:20;19.50;44.80
41644;DHT22;44236;48.098;11.582;2023-03-14T15:13:46;19.60;44.90
41644;DHT22;44236;48.098;11.582;2023-03-14T15:16:14;19.60;44.90
41644;DHT22;44236;48.098;11.582;2023-03-14T15:18:40;19.50;44.80
41644;DHT22;44236;48.098;11.582;2023-03-14T15:21:09;19.50;44.70
41644;DHT22;44236;48.098;11.582;2023-03-14T15:23:35;19.60;44.80
41644;DHT22;44236;48.098;11.582;2023-03-14T15:26:00;19.50;44.70
41644;DHT22;44236;48.098;11.582;2023-03-14T15:28:28;19.60;44.80
41644;DHT22;44236;48.098;11.582;2023-03-14T15:30:56;19.60;44.70
41644;DHT22;44236;48.098;11.582;2023-03-14T15:33:22;19.50;44.70
41644;DHT22;44236;48.098;11.582;2023-03-14T15:35:48;19.50;44.70
41644;DHT22;44236;48.098;11.582;2023-03-14T15:38:17;19.50;44.70
41644;DHT22;44236;48.098;11.582;2023-03-14T15:40:46;19.50;44.70
41644;DHT22;44236;48.098;11.582;2023-03-14T15:43:12;19.50;44.80
41644;DHT22;44236;48.098;11.582;2023-03-14T15:45:37;19.50;44.70
41644;DHT22;44236;48.098;11.582;2023-03-14T15:48:03;19.50;45.20
41644;DHT22;44236;48.098;11.582;2023-03-14T15:50:29;19.50;44.70
41644;DHT22;44236;48.098;11.582;2023-03-14T15:52:55;19.50;44.70
41644;DHT22;44236;48.098;11.582;2023-03-14T15:55:22;19.50;44.70
41644;DHT22;44236;48.098;11.582;2023-03-14T15:57:48;19.50;44.70
41644;DHT22;44236;48.098;11.582;2023-03-14T16:00:16;19.50;44.70
41644;DHT22;44236;48.098;11.582;2023-03-14T16:02:47;19.50;44.70
41644;DHT22;44236;48.098;11.582;2023-03-14T16:05:12;19.50;44.70
41644;DHT22;44236;48.098;11.582;2023-03-14T16:07:38;19.50;44.70
41644;DHT22;44236;48.098;11.582;2023-03-14T16:10:05;19.50;44.70
41644;DHT22;44236;48.098;11.582;2023-03-14T16:12:32;19.50;44.70
41644;DHT22;44236;48.098;11.582;2023-03-14T16:14:57;19.50;44.70
41644;DHT22;44236;48.098;11.582;2023-03-14T16:17:23;19.50;44.60
41644;DHT22;44236;48.098;11.582;2023-03-14T16:19:49;19.50;44.60
41644;DHT22;44236;48.098;11.582;2023-03-14T16:22:14;19.50;44.60
41644;DHT22;44236;48.098;11.582;2023-03-14T16:24:40;19.30;42.50
41644;DHT22;44236;48.098;11.582;2023-03-14T16:27:06;18.80;41.20
41644;DHT22;44236;48.098;11.582;2023-03-14T16:29:31;18.00;40.90
41644;DHT22;44236;48.098;11.582;2023-03-14T16:31:57;17.70;41.10
41644;DHT22;44236;48.098;11.582;2023-03-14T16:34:22;17.30;41.70
41644;DHT22;44236;48.098;11.582;2023-03-14T16:36:48;17.40;41.50
41644;DHT22;44236;48.098;11.582;2023-03-14T16:39:17;17.60;41.90
41644;DHT22;44236;48.098;11.582;2023-03-14T16:41:43;17.90;42.30
41644;DHT22;44236;48.098;11.582;2023-03-14T16:44:09;18.10;42.60
41644;DHT22;44236;48.098;11.582;2023-03-14T16:46:35;18.30;42.90
41644;DHT22;44236;48.098;11.582;2023-03-14T16:49:02;18.50;43.10